Time;durP1;ratioP1;P1;durP2;ratioP2;P2;SDS_P1;SDS_P2;PMS_P1;PMS_P2;Temp;Humidity;BMP_temperature;BMP_pressure;BME280_temperature;BME280_humidity;BME280_pressure;Samples;Min_cycle;Max_cycle;Signal;HPM_P1;HPM_P2
2021/09/01 00:01:50;;;;;;;31.85;14.32;;;;;;;;;;5003737;28;20042;-72
2021/09/01 00:04:17;;;;;;;31.67;14.77;;;;;;;;;;5008691;28;20069;-71
2021/09/01 00:06:44;;;;;;;29.67;11.05;;;;;;;;;;5003062;28;20045;-72
2021/09/01 00:09:11;;;;;;;26.30;12.95;;;;;;;;;;5002695;28;20373;-70
2021/09/01 00:11:39;;;;;;;24.08;12.05;;;;;;;;;;4995154;28;20042;-73
2021/09/01 00:14:06;;;;;;;28.80;11.73;;;;;;;;;;4980470;28;20512;-72
2021/09/01 00:16:33;;;;;;;25.35;10.70;;;;;;;;;;4996611;28;20046;-73
2021/09/01 00:19:04;;;;;;;22.90;10.57;;;;;;;;;;4999283;28;20050;-71
2021/09/01 00:21:31;;;;;;;24.75;10.68;;;;;;;;;;4996343;28;20132;-72
2021/09/01 00:24:02;;;;;;;25.27;10.23;;;;;;;;;;4995408;28;20129;-74
2021/09/01 00:26:30;;;;;;;26.08;10.43;;;;;;;;;;4994964;28;20046;-68
2021/09/01 00:28:58;;;;;;;25.85;11.73;;;;;;;;;;4984721;28;20672;-71
2021/09/01 00:31:26;;;;;;;23.38;10.57;;;;;;;;;;4997814;28;20129;-71
2021/09/01 00:33:53;;;;;;;22.98;11.70;;;;;;;;;;4999007;28;20056;-70
2021/09/01 00:36:20;;;;;;;32.90;16.15;;;;;;;;;;5002949;28;20056;-70
2021/09/01 00:38:48;;;;;;;36.20;19.20;;;;;;;;;;5001350;28;20048;-70
2021/09/01 00:41:23;;;;;;;72.85;44.05;;;;;;;;;;5001508;28;20045;-71
2021/09/01 00:43:52;;;;;;;129.73;96.72;;;;;;;;;;5000428;28;20042;-74
2021/09/01 00:46:20;;;;;;;170.65;130.77;;;;;;;;;;4999261;28;20042;-71
2021/09/01 00:48:48;;;;;;;155.52;117.28;;;;;;;;;;5000247;28;20042;-72
2021/09/01 00:51:19;;;;;;;154.43;108.78;;;;;;;;;;5000432;28;20076;-73
2021/09/01 00:53:47;;;;;;;124.05;88.18;;;;;;;;;;4999631;28;20040;-71
2021/09/01 00:56:20;;;;;;;111.85;78.97;;;;;;;;;;4997976;28;20049;-72
2021/09/01 00:58:48;;;;;;;107.15;70.95;;;;;;;;;;4996555;28;20451;-71
2021/09/01 01:01:20;;;;;;;88.45;59.22;;;;;;;;;;4998144;28;20069;-70
2021/09/01 01:03:52;;;;;;;87.28;56.85;;;;;;;;;;4993653;28;20048;-71
2021/09/01 01:06:23;;;;;;;78.95;52.53;;;;;;;;;;5001848;28;20045;-71
2021/09/01 01:08:51;;;;;;;69.97;44.20;;;;;;;;;;5000851;28;20056;-70
2021/09/01 01:11:19;;;;;;;59.08;39.10;;;;;;;;;;5000594;28;20049;-74
2021/09/01 01:13:47;;;;;;;65.38;38.25;;;;;;;;;;5000290;28;20057;-70
2021/09/01 01:16:19;;;;;;;57.67;33.55;;;;;;;;;;5011636;28;20041;-71
2021/09/01 01:18:55;;;;;;;48.28;28.15;;;;;;;;;;5002767;28;20045;-70
2021/09/01 01:21:25;;;;;;;49.08;28.45;;;;;;;;;;4998630;28;20041;-71
2021/09/01 01:23:57;;;;;;;58.10;28.40;;;;;;;;;;4998204;28;20061;-74
2021/09/01 01:26:26;;;;;;;52.35;22.90;;;;;;;;;;4993510;28;20107;-75
2021/09/01 01:28:58;;;;;;;41.72;22.40;;;;;;;;;;4997453;28;20033;-73
2021/09/01 01:31:26;;;;;;;39.17;20.65;;;;;;;;;;5000844;28;20042;-73
2021/09/01 01:33:54;;;;;;;36.97;18.88;;;;;;;;;;4999379;28;20037;-72
2021/09/01 01:36:21;;;;;;;37.78;21.15;;;;;;;;;;5000713;28;20373;-69
2021/09/01 01:38:48;;;;;;;37.17;19.45;;;;;;;;;;4997238;28;20042;-70
2021/09/01 01:41:15;;;;;;;38.85;17.13;;;;;;;;;;5001949;28;20046;-72
2021/09/01 01:43:46;;;;;;;29.92;15.25;;;;;;;;;;5014159;28;20045;-71
2021/09/01 01:46:14;;;;;;;33.00;15.82;;;;;;;;;;5003005;28;20037;-71
2021/09/01 01:48:41;;;;;;;33.90;15.82;;;;;;;;;;5000583;28;20049;-71
2021/09/01 01:51:08;;;;;;;32.00;15.02;;;;;;;;;;4998388;28;20408;-74
2021/09/01 01:53:35;;;;;;;29.40;14.48;;;;;;;;;;4981018;28;20100;-71
2021/09/01 01:56:02;;;;;;;26.58;13.80;;;;;;;;;;4998581;28;20069;-70
2021/09/01 01:58:29;;;;;;;30.85;14.30;;;;;;;;;;4985151;28;20210;-74
2021/09/01 02:00:57;;;;;;;32.00;15.52;;;;;;;;;;5000616;28;20495;-71
2021/09/01 02:03:24;;;;;;;27.63;14.52;;;;;;;;;;5002579;28;20519;-71
2021/09/01 02:05:51;;;;;;;28.95;14.43;;;;;;;;;;5000472;28;20458;-72
2021/09/01 02:08:18;;;;;;;28.67;12.93;;;;;;;;;;4999956;28;20088;-70
2021/09/01 02:10:45;;;;;;;27.27;14.02;;;;;;;;;;5001189;28;20539;-71
2021/09/01 02:13:12;;;;;;;25.38;12.50;;;;;;;;;;4998740;28;20046;-74
2021/09/01 02:15:39;;;;;;;25.08;12.90;;;;;;;;;;5000318;28;20050;-71
2021/09/01 02:18:06;;;;;;;22.42;11.95;;;;;;;;;;4997337;28;20125;-70
2021/09/01 02:20:33;;;;;;;18.38;10.52;;;;;;;;;;4996172;28;20049;-72
2021/09/01 02:23:00;;;;;;;23.55;11.55;;;;;;;;;;4997409;28;20049;-70
2021/09/01 02:25:27;;;;;;;22.05;11.38;;;;;;;;;;5000784;28;20041;-70
2021/09/01 02:27:54;;;;;;;21.30;11.13;;;;;;;;;;5005300;28;20550;-72
2021/09/01 02:30:22;;;;;;;27.20;11.10;;;;;;;;;;5003597;28;20041;-70
2021/09/01 02:32:52;;;;;;;20.88;10.40;;;;;;;;;;5002525;28;20037;-71
2021/09/01 02:35:19;;;;;;;20.88;10.52;;;;;;;;;;5002694;28;20096;-72
2021/09/01 02:37:51;;;;;;;17.88;10.38;;;;;;;;;;5003522;28;20034;-70
2021/09/01 02:40:23;;;;;;;17.90;9.35;;;;;;;;;;5003144;28;20041;-70
2021/09/01 02:42:50;;;;;;;19.27;9.63;;;;;;;;;;4998237;28;20034;-70
2021/09/01 02:45:20;;;;;;;18.13;9.50;;;;;;;;;;4984645;28;20062;-71
2021/09/01 02:47:47;;;;;;;16.02;8.80;;;;;;;;;;4999738;28;20038;-69
2021/09/01 02:50:15;;;;;;;18.70;9.00;;;;;;;;;;4983830;28;20053;-69
2021/09/01 02:52:43;;;;;;;18.42;8.93;;;;;;;;;;4983039;28;20042;-69
2021/09/01 02:55:10;;;;;;;15.82;9.02;;;;;;;;;;5004090;28;20042;-70
2021/09/01 02:57:38;;;;;;;16.67;8.85;;;;;;;;;;4989134;28;20046;-70
2021/09/01 03:00:05;;;;;;;22.55;9.55;;;;;;;;;;4976014;28;20097;-70
2021/09/01 03:02:37;;;;;;;13.35;9.10;;;;;;;;;;4976721;28;20054;-71
2021/09/01 03:05:06;;;;;;;18.52;9.15;;;;;;;;;;4992231;28;20030;-70
2021/09/01 03:07:33;;;;;;;14.32;9.23;;;;;;;;;;4991058;28;20037;-70
2021/09/01 03:10:00;;;;;;;15.05;8.07;;;;;;;;;;4996484;28;20050;-71
2021/09/01 03:12:29;;;;;;;16.38;9.15;;;;;;;;;;4993661;28;20497;-70
2021/09/01 03:14:56;;;;;;;18.88;9.15;;;;;;;;;;4978279;28;20046;-70
2021/09/01 03:17:23;;;;;;;18.48;9.52;;;;;;;;;;4976623;28;20050;-70
2021/09/01 03:19:52;;;;;;;21.65;9.52;;;;;;;;;;4980343;28;20121;-73
2021/09/01 03:22:20;;;;;;;17.45;9.32;;;;;;;;;;4986133;28;20050;-69
2021/09/01 03:24:47;;;;;;;17.52;8.70;;;;;;;;;;4985398;28;22552;-72
2021/09/01 03:27:14;;;;;;;15.35;9.38;;;;;;;;;;4986413;28;20066;-69
2021/09/01 03:29:41;;;;;;;18.40;9.20;;;;;;;;;;4974482;28;20046;-71
2021/09/01 03:32:09;;;;;;;15.85;8.30;;;;;;;;;;4975060;28;20077;-70
2021/09/01 03:34:36;;;;;;;15.32;8.52;;;;;;;;;;4987018;28;20046;-70
2021/09/01 03:37:03;;;;;;;18.73;8.65;;;;;;;;;;5004455;28;20051;-70
2021/09/01 03:39:30;;;;;;;16.30;9.27;;;;;;;;;;4974955;28;20053;-70
2021/09/01 03:41:57;;;;;;;11.98;8.20;;;;;;;;;;4975904;28;20389;-71
2021/09/01 03:44:24;;;;;;;14.07;7.95;;;;;;;;;;5006718;28;20037;-70
2021/09/01 03:46:51;;;;;;;16.60;7.97;;;;;;;;;;4998379;28;20045;-70
2021/09/01 03:49:18;;;;;;;12.98;8.20;;;;;;;;;;4994872;28;20446;-70
2021/09/01 03:51:48;;;;;;;13.93;8.05;;;;;;;;;;4993487;28;20959;-70
2021/09/01 03:54:18;;;;;;;15.07;8.23;;;;;;;;;;4996005;28;20065;-70
2021/09/01 03:56:45;;;;;;;15.35;8.00;;;;;;;;;;4998384;28;20119;-70
2021/09/01 03:59:12;;;;;;;14.23;7.95;;;;;;;;;;4995420;28;20047;-71
2021/09/01 04:01:42;;;;;;;20.35;8.77;;;;;;;;;;4995037;28;20093;-70
2021/09/01 04:04:09;;;;;;;14.57;8.93;;;;;;;;;;4995295;28;20038;-70
2021/09/01 04:06:36;;;;;;;15.15;8.68;;;;;;;;;;4994603;28;20050;-70
2021/09/01 04:09:03;;;;;;;18.35;9.63;;;;;;;;;;5026392;28;20500;-70
2021/09/01 04:11:30;;;;;;;14.70;10.05;;;;;;;;;;4993323;28;20092;-69
2021/09/01 04:13:57;;;;;;;16.35;9.77;;;;;;;;;;4995728;28;20073;-70
2021/09/01 04:16:27;;;;;;;24.40;12.02;;;;;;;;;;4993679;28;20042;-72
2021/09/01 04:18:54;;;;;;;19.73;12.98;;;;;;;;;;4995218;28;22689;-69
2021/09/01 04:21:21;;;;;;;21.92;14.57;;;;;;;;;;4996537;28;20045;-70
2021/09/01 04:23:48;;;;;;;27.63;14.75;;;;;;;;;;4994855;28;20100;-70
2021/09/01 04:26:15;;;;;;;23.83;13.63;;;;;;;;;;4994252;28;20061;-70
2021/09/01 04:28:43;;;;;;;21.98;12.73;;;;;;;;;;4990914;28;20086;-69
2021/09/01 04:31:10;;;;;;;24.05;14.00;;;;;;;;;;4994650;28;20034;-71
2021/09/01 04:33:37;;;;;;;21.27;12.98;;;;;;;;;;5016203;28;20139;-70
2021/09/01 04:36:04;;;;;;;21.55;13.50;;;;;;;;;;4995290;28;20117;-69
2021/09/01 04:38:32;;;;;;;27.67;13.38;;;;;;;;;;4994754;28;20041;-70
2021/09/01 04:40:59;;;;;;;18.73;11.80;;;;;;;;;;4994559;28;20046;-71
2021/09/01 04:43:26;;;;;;;17.13;10.45;;;;;;;;;;4993193;28;20066;-70
2021/09/01 04:45:53;;;;;;;13.18;9.40;;;;;;;;;;4993852;28;20508;-70
2021/09/01 04:48:20;;;;;;;15.38;8.32;;;;;;;;;;4994082;28;20057;-72
2021/09/01 04:50:47;;;;;;;16.85;9.55;;;;;;;;;;4994515;28;20061;-70
2021/09/01 04:53:14;;;;;;;15.63;8.88;;;;;;;;;;5022670;28;20057;-70
2021/09/01 04:55:41;;;;;;;12.15;7.93;;;;;;;;;;4983033;28;20066;-72
2021/09/01 04:58:09;;;;;;;15.38;8.63;;;;;;;;;;4979283;28;20042;-69
2021/09/01 05:00:36;;;;;;;12.88;8.57;;;;;;;;;;4992303;28;20109;-69
2021/09/01 05:03:03;;;;;;;15.38;8.95;;;;;;;;;;4984095;28;20990;-71
2021/09/01 05:05:30;;;;;;;15.57;8.45;;;;;;;;;;4994080;28;20099;-69
2021/09/01 05:07:57;;;;;;;12.88;8.05;;;;;;;;;;4984176;28;20049;-69
2021/09/01 05:10:24;;;;;;;14.27;8.93;;;;;;;;;;4984029;28;20050;-70
2021/09/01 05:12:51;;;;;;;18.10;8.48;;;;;;;;;;4982137;28;20042;-69
2021/09/01 05:15:22;;;;;;;15.82;8.32;;;;;;;;;;4983939;28;20113;-69
2021/09/01 05:17:49;;;;;;;15.88;8.45;;;;;;;;;;5003703;28;20041;-70
2021/09/01 05:20:17;;;;;;;15.60;7.72;;;;;;;;;;4985909;28;20050;-69
2021/09/01 05:22:47;;;;;;;12.60;7.45;;;;;;;;;;4984067;28;20038;-69
2021/09/01 05:25:17;;;;;;;13.18;7.25;;;;;;;;;;4985628;28;20437;-69
2021/09/01 05:27:48;;;;;;;14.57;8.25;;;;;;;;;;4990954;28;20053;-70
2021/09/01 05:30:18;;;;;;;14.90;8.10;;;;;;;;;;4998224;28;20042;-69
2021/09/01 05:32:48;;;;;;;11.77;7.55;;;;;;;;;;5003695;28;20382;-69
2021/09/01 05:35:16;;;;;;;14.55;7.60;;;;;;;;;;4997023;28;20105;-71
2021/09/01 05:37:44;;;;;;;12.98;8.15;;;;;;;;;;4982859;28;20268;-69
2021/09/01 05:40:12;;;;;;;15.93;7.22;;;;;;;;;;5015090;28;20038;-69
2021/09/01 05:42:42;;;;;;;13.13;6.63;;;;;;;;;;4981269;28;20046;-69
2021/09/01 05:45:10;;;;;;;12.90;7.03;;;;;;;;;;4983894;28;20043;-70
2021/09/01 05:47:37;;;;;;;12.27;6.70;;;;;;;;;;4983362;28;20045;-73
2021/09/01 05:50:05;;;;;;;11.75;6.50;;;;;;;;;;4984372;28;20124;-69
2021/09/01 05:52:32;;;;;;;13.40;6.82;;;;;;;;;;4984425;28;20046;-70
2021/09/01 05:55:04;;;;;;;15.48;7.15;;;;;;;;;;5026782;28;20531;-69
2021/09/01 05:57:37;;;;;;;13.85;6.35;;;;;;;;;;5030355;28;20056;-71
2021/09/01 06:00:15;;;;;;;11.73;6.05;;;;;;;;;;4987568;28;20073;-70
2021/09/01 06:02:46;;;;;;;12.98;5.78;;;;;;;;;;4987387;28;20038;-69
2021/09/01 06:05:13;;;;;;;15.65;6.50;;;;;;;;;;4991591;28;20048;-69
2021/09/01 06:07:53;;;;;;;11.80;5.75;;;;;;;;;;5004318;28;20053;-73
2021/09/01 06:10:29;;;;;;;9.23;6.10;;;;;;;;;;5000922;28;20057;-69
2021/09/01 06:13:07;;;;;;;9.73;6.07;;;;;;;;;;4987687;28;20122;-69
2021/09/01 06:15:36;;;;;;;11.52;5.00;;;;;;;;;;4995337;28;20054;-69
2021/09/01 06:18:07;;;;;;;8.95;5.38;;;;;;;;;;5005939;28;20038;-71
2021/09/01 06:20:36;;;;;;;11.05;5.63;;;;;;;;;;5010074;28;20042;-71
2021/09/01 06:23:04;;;;;;;8.93;4.68;;;;;;;;;;4993782;28;20548;-70
2021/09/01 06:25:31;;;;;;;9.57;5.07;;;;;;;;;;4988132;28;20034;-73
2021/09/01 06:28:01;;;;;;;9.23;5.10;;;;;;;;;;4987660;28;20038;-69
2021/09/01 06:30:28;;;;;;;10.60;4.90;;;;;;;;;;4970001;28;20050;-69
2021/09/01 06:32:55;;;;;;;10.18;5.03;;;;;;;;;;4989350;28;20049;-69
2021/09/01 06:35:23;;;;;;;9.48;5.47;;;;;;;;;;4991550;28;20038;-69
2021/09/01 06:37:50;;;;;;;14.55;5.32;;;;;;;;;;4978448;28;20042;-70
2021/09/01 06:40:19;;;;;;;12.00;4.93;;;;;;;;;;4996930;28;20038;-68
2021/09/01 06:42:46;;;;;;;8.20;4.55;;;;;;;;;;4995176;28;20041;-72
2021/09/01 06:45:13;;;;;;;9.30;5.10;;;;;;;;;;4996696;28;20034;-70
2021/09/01 06:47:46;;;;;;;12.75;5.30;;;;;;;;;;4996818;28;20097;-69
2021/09/01 06:50:15;;;;;;;11.82;5.65;;;;;;;;;;4996671;28;20500;-69
2021/09/01 06:52:44;;;;;;;13.57;5.97;;;;;;;;;;4985269;28;20045;-69
2021/09/01 06:55:12;;;;;;;12.30;6.28;;;;;;;;;;4992213;28;20081;-70
2021/09/01 06:57:39;;;;;;;;;;;;;;;;;;4994504;28;20081;-69
2021/09/01 07:00:07;;;;;;;;;;;;;;;;;;4986010;28;19918;-69
2021/09/01 07:02:35;;;;;;;12.48;6.60;;;;;;;;;;5000839;28;19923;-69
2021/09/01 07:05:02;;;;;;;;;;;;;;;;;;5014828;28;20123;-69
2021/09/01 07:07:29;;;;;;;;;;;;;;;;;;5005457;28;21224;-69
2021/09/01 07:09:58;;;;;;;9.93;6.45;;;;;;;;;;4998361;28;20295;-70
2021/09/01 07:12:27;;;;;;;10.90;6.43;;;;;;;;;;5003565;28;20050;-69
2021/09/01 07:14:54;;;;;;;13.70;5.50;;;;;;;;;;4999508;28;20413;-69
2021/09/01 07:17:21;;;;;;;10.05;6.28;;;;;;;;;;4995878;28;20120;-70
2021/09/01 07:19:50;;;;;;;11.90;6.55;;;;;;;;;;4985229;28;20050;-70
2021/09/01 07:22:17;;;;;;;10.55;6.68;;;;;;;;;;4984613;28;20464;-69
2021/09/01 07:24:44;;;;;;;11.10;6.28;;;;;;;;;;5000405;28;20084;-72
2021/09/01 07:27:12;;;;;;;13.23;6.63;;;;;;;;;;4990509;28;20124;-69
2021/09/01 07:29:39;;;;;;;15.70;6.70;;;;;;;;;;4986416;28;20110;-68
2021/09/01 07:32:06;;;;;;;11.45;6.78;;;;;;;;;;4986934;28;20046;-69
2021/09/01 07:34:33;;;;;;;11.05;5.97;;;;;;;;;;4998306;28;20056;-70
2021/09/01 07:37:00;;;;;;;13.57;6.20;;;;;;;;;;4990081;28;20034;-69
2021/09/01 07:39:27;;;;;;;8.77;5.63;;;;;;;;;;4999183;28;20050;-69
2021/09/01 07:41:54;;;;;;;11.50;5.60;;;;;;;;;;5004753;28;20038;-69
2021/09/01 07:44:21;;;;;;;11.88;5.72;;;;;;;;;;4996701;28;20121;-69
2021/09/01 07:46:48;;;;;;;10.95;5.60;;;;;;;;;;4985901;28;20046;-70
2021/09/01 07:49:15;;;;;;;10.32;4.72;;;;;;;;;;4986148;28;20042;-69
2021/09/01 07:51:42;;;;;;;9.23;5.13;;;;;;;;;;4983965;28;20049;-70
2021/09/01 07:54:09;;;;;;;11.80;5.22;;;;;;;;;;4988368;28;20061;-69
2021/09/01 07:56:37;;;;;;;9.60;4.40;;;;;;;;;;4994164;28;20042;-69
2021/09/01 07:59:04;;;;;;;9.13;4.32;;;;;;;;;;4997183;28;20124;-69
2021/09/01 08:01:31;;;;;;;10.60;4.72;;;;;;;;;;5003666;28;20042;-68
2021/09/01 08:03:58;;;;;;;9.48;4.40;;;;;;;;;;5003183;28;20042;-73
2021/09/01 08:06:25;;;;;;;9.07;4.40;;;;;;;;;;5002051;28;20035;-69
2021/09/01 08:08:52;;;;;;;10.90;5.30;;;;;;;;;;4984832;28;20565;-69
2021/09/01 08:11:19;;;;;;;10.88;4.70;;;;;;;;;;4985138;28;20046;-72
2021/09/01 08:13:46;;;;;;;10.30;4.82;;;;;;;;;;5007475;28;20054;-69
2021/09/01 08:16:13;;;;;;;12.82;4.88;;;;;;;;;;4993217;28;20064;-70
2021/09/01 08:18:40;;;;;;;10.52;5.20;;;;;;;;;;4998439;28;20673;-69
2021/09/01 08:21:08;;;;;;;9.45;4.88;;;;;;;;;;5003112;28;20046;-69
2021/09/01 08:23:35;;;;;;;11.63;5.00;;;;;;;;;;4984787;28;20125;-69
2021/09/01 08:26:03;;;;;;;12.85;5.03;;;;;;;;;;4984158;28;20058;-69
2021/09/01 08:28:30;;;;;;;10.75;5.05;;;;;;;;;;4984913;28;20049;-72
2021/09/01 08:30:57;;;;;;;13.23;5.95;;;;;;;;;;4984914;28;20038;-70
2021/09/01 08:33:24;;;;;;;11.23;5.28;;;;;;;;;;4985790;28;20042;-69
2021/09/01 08:35:51;;;;;;;11.30;4.93;;;;;;;;;;4983999;28;20489;-69
2021/09/01 08:38:18;;;;;;;9.73;5.07;;;;;;;;;;4986075;28;20121;-70
2021/09/01 08:40:48;;;;;;;8.68;4.97;;;;;;;;;;4994253;28;20034;-69
2021/09/01 08:43:19;;;;;;;12.38;5.05;;;;;;;;;;4994990;28;20045;-69
2021/09/01 08:45:47;;;;;;;9.57;4.70;;;;;;;;;;5001881;28;20585;-70
2021/09/01 08:48:15;;;;;;;16.77;4.97;;;;;;;;;;5000879;28;25060;-70
2021/09/01 08:50:44;;;;;;;10.88;5.72;;;;;;;;;;4992041;28;20034;-71
2021/09/01 08:53:11;;;;;;;13.05;5.32;;;;;;;;;;4994414;28;20042;-70
2021/09/01 08:55:39;;;;;;;14.13;5.28;;;;;;;;;;5015564;28;20048;-70
2021/09/01 08:58:06;;;;;;;13.48;5.72;;;;;;;;;;4993059;28;20044;-70
2021/09/01 09:00:36;;;;;;;13.32;5.78;;;;;;;;;;4994271;28;20125;-71
2021/09/01 09:03:03;;;;;;;10.70;5.35;;;;;;;;;;4992802;28;20452;-73
2021/09/01 09:05:36;;;;;;;9.45;5.32;;;;;;;;;;5001973;28;20042;-70
2021/09/01 09:08:07;;;;;;;10.05;5.05;;;;;;;;;;4992854;28;20038;-70
2021/09/01 09:10:40;;;;;;;10.07;4.68;;;;;;;;;;4994091;28;20038;-70
2021/09/01 09:13:09;;;;;;;10.27;4.55;;;;;;;;;;4995393;28;20121;-70
2021/09/01 09:15:37;;;;;;;12.77;5.50;;;;;;;;;;4993671;28;20064;-70
2021/09/01 09:18:24;;;;;;;9.98;4.78;;;;;;;;;;4991953;28;20053;-71
2021/09/01 09:21:16;;;;;;;12.80;4.38;;;;;;;;;;4994257;28;20049;-70
2021/09/01 09:23:44;;;;;;;12.52;4.20;;;;;;;;;;4993621;28;20145;-71
2021/09/01 09:26:30;;;;;;;9.48;4.88;;;;;;;;;;4993853;28;20049;-70
2021/09/01 09:29:18;;;;;;;10.98;4.50;;;;;;;;;;4995236;28;20050;-70
2021/09/01 09:32:01;;;;;;;9.27;4.00;;;;;;;;;;4997470;28;20039;-72
2021/09/01 09:34:43;;;;;;;12.93;4.30;;;;;;;;;;4985964;28;20405;-72
2021/09/01 09:37:13;;;;;;;8.52;4.30;;;;;;;;;;4977766;28;20058;-71
2021/09/01 09:39:47;;;;;;;8.85;4.35;;;;;;;;;;4979310;28;20034;-70
2021/09/01 09:42:32;;;;;;;10.70;4.47;;;;;;;;;;5000021;28;20124;-70
2021/09/01 09:45:00;;;;;;;9.73;4.25;;;;;;;;;;5029951;28;20050;-69
2021/09/01 09:47:47;;;;;;;9.93;4.30;;;;;;;;;;4997936;28;20550;-70
2021/09/01 09:50:14;;;;;;;13.05;4.78;;;;;;;;;;4995390;28;20033;-70
2021/09/01 09:52:41;;;;;;;10.32;4.10;;;;;;;;;;4996212;28;20047;-69
2021/09/01 09:55:14;;;;;;;10.40;4.00;;;;;;;;;;4990015;28;20400;-69
2021/09/01 09:57:51;;;;;;;11.93;4.60;;;;;;;;;;5024953;28;20104;-70
2021/09/01 10:00:20;;;;;;;9.85;3.67;;;;;;;;;;4980698;28;20117;-67
2021/09/01 10:02:47;;;;;;;10.02;4.20;;;;;;;;;;4986530;28;20042;-67
2021/09/01 10:05:16;;;;;;;10.70;4.20;;;;;;;;;;4986789;28;20092;-68
2021/09/01 10:07:44;;;;;;;8.57;4.15;;;;;;;;;;4990614;28;20382;-69
2021/09/01 10:10:12;;;;;;;15.70;4.70;;;;;;;;;;4960684;28;20054;-70
2021/09/01 10:12:47;;;;;;;14.93;4.65;;;;;;;;;;4979271;28;20491;-70
2021/09/01 10:15:31;;;;;;;10.80;4.07;;;;;;;;;;4979012;28;20038;-68
2021/09/01 10:18:05;;;;;;;9.43;3.53;;;;;;;;;;4979433;28;20086;-68
2021/09/01 10:20:36;;;;;;;10.77;3.92;;;;;;;;;;4988108;28;20038;-68
2021/09/01 10:23:06;;;;;;;10.38;4.97;;;;;;;;;;4986407;28;20050;-68
2021/09/01 10:25:39;;;;;;;11.23;4.28;;;;;;;;;;4987956;28;20401;-68
2021/09/01 10:28:22;;;;;;;11.88;4.75;;;;;;;;;;5019221;28;20054;-68
2021/09/01 10:31:13;;;;;;;15.70;4.22;;;;;;;;;;4988239;28;20130;-69
2021/09/01 10:33:48;;;;;;;11.00;4.40;;;;;;;;;;5019240;28;20554;-68
2021/09/01 10:36:25;;;;;;;12.38;4.78;;;;;;;;;;4986327;28;20035;-69
2021/09/01 10:38:53;;;;;;;11.10;4.78;;;;;;;;;;4987782;28;20047;-69
2021/09/01 10:41:31;;;;;;;13.85;3.97;;;;;;;;;;4987706;28;20417;-68
2021/09/01 10:44:22;;;;;;;13.10;4.10;;;;;;;;;;4987947;28;20081;-68
2021/09/01 10:46:52;;;;;;;8.68;4.30;;;;;;;;;;4975749;28;20035;-69
2021/09/01 10:49:21;;;;;;;11.70;4.22;;;;;;;;;;4976926;28;20501;-69
2021/09/01 10:52:02;;;;;;;9.23;3.70;;;;;;;;;;4983156;28;20473;-71
2021/09/01 10:54:31;;;;;;;9.38;4.00;;;;;;;;;;4977076;28;20050;-68
2021/09/01 10:56:59;;;;;;;;;;;;;;;;;;4978554;28;20034;-68
2021/09/01 10:59:38;;;;;;;10.38;3.72;;;;;;;;;;4977864;28;19969;-68
2021/09/01 11:02:09;;;;;;;10.48;3.88;;;;;;;;;;4978129;28;20097;-68
2021/09/01 11:04:45;;;;;;;7.78;3.67;;;;;;;;;;5009221;28;20050;-69
2021/09/01 11:07:21;;;;;;;8.18;4.07;;;;;;;;;;4978891;28;20071;-68
2021/09/01 11:09:59;;;;;;;7.88;3.30;;;;;;;;;;4975354;28;20114;-69
2021/09/01 11:12:30;;;;;;;11.07;3.80;;;;;;;;;;4987337;28;20039;-68
2021/09/01 11:14:58;;;;;;;8.23;3.10;;;;;;;;;;4985635;28;20416;-69
2021/09/01 11:17:27;;;;;;;9.32;3.45;;;;;;;;;;4984298;28;20465;-69
2021/09/01 11:19:59;;;;;;;8.35;3.20;;;;;;;;;;4980393;28;20161;-69
2021/09/01 11:22:37;;;;;;;7.53;2.70;;;;;;;;;;4982109;28;20552;-69
2021/09/01 11:25:06;;;;;;;6.75;2.90;;;;;;;;;;4973643;28;20039;-70
2021/09/01 11:27:37;;;;;;;8.32;2.85;;;;;;;;;;4976990;28;20042;-69
2021/09/01 11:30:10;;;;;;;5.50;2.60;;;;;;;;;;4955883;28;20049;-69
2021/09/01 11:32:40;;;;;;;7.38;2.75;;;;;;;;;;4976615;28;20076;-69
2021/09/01 11:35:19;;;;;;;5.78;2.40;;;;;;;;;;4976860;28;20057;-72
2021/09/01 11:38:05;;;;;;;4.53;2.17;;;;;;;;;;4974509;28;20035;-69
2021/09/01 11:40:34;;;;;;;5.40;2.60;;;;;;;;;;5006118;28;20042;-70
2021/09/01 11:43:01;;;;;;;5.68;2.40;;;;;;;;;;5012992;28;20172;-69
2021/09/01 11:45:28;;;;;;;4.75;2.10;;;;;;;;;;4985642;28;20184;-71
2021/09/01 11:47:59;;;;;;;6.18;2.53;;;;;;;;;;4992844;28;20089;-69
2021/09/01 11:50:26;;;;;;;6.07;2.13;;;;;;;;;;4973126;28;20632;-70
2021/09/01 11:52:54;;;;;;;6.82;2.10;;;;;;;;;;4973364;28;20100;-69
2021/09/01 11:55:26;;;;;;;7.18;2.67;;;;;;;;;;4973651;28;20500;-70
2021/09/01 11:57:53;;;;;;;6.82;2.42;;;;;;;;;;4973547;28;20117;-70
2021/09/01 12:00:20;;;;;;;6.30;2.00;;;;;;;;;;4973934;28;20039;-69
2021/09/01 12:02:50;;;;;;;4.18;2.00;;;;;;;;;;4972729;28;20694;-74
2021/09/01 12:05:30;;;;;;;5.43;1.83;;;;;;;;;;4989551;28;20034;-70
2021/09/01 12:07:57;;;;;;;5.82;2.30;;;;;;;;;;4974710;28;20520;-70
2021/09/01 12:10:29;;;;;;;4.45;1.50;;;;;;;;;;4974754;28;20502;-70
2021/09/01 12:13:01;;;;;;;4.82;2.25;;;;;;;;;;4974401;28;20051;-68
2021/09/01 12:15:28;;;;;;;8.10;2.47;;;;;;;;;;4974072;28;20050;-70
2021/09/01 12:18:03;;;;;;;6.05;1.80;;;;;;;;;;4972990;28;20568;-69
2021/09/01 12:20:34;;;;;;;5.00;1.88;;;;;;;;;;5001238;28;20100;-70
2021/09/01 12:23:16;;;;;;;5.47;2.20;;;;;;;;;;4975035;28;20128;-68
2021/09/01 12:25:43;;;;;;;5.05;2.03;;;;;;;;;;4980718;28;20520;-71
2021/09/01 12:28:11;;;;;;;9.52;2.53;;;;;;;;;;4975344;28;21988;-69
